Meteo Giornale » Osservazioni meteo Cina » Qingdao
ore: 04:00 - Osservazioni Meteo Qingdao
Lat. 36° 4' N Lon. 120° 20' E Alt. 77 metri s.l.m.
19 °C
Foschia
Temp. 24 Ore
19 °C
31 °C
Nord/NOvest
10.8 Km/h
Dew point 19 °C
Umidità 100 %
Visibilità 5 Km
Il sole sorge alle ore 05:30
Il sole tramonta alle ore 18:27
| Data e Ora | Cielo e Fenomeni | T °C | DP °C | Um. % | Pres. hPa | Vis. km | Vento km/h | |
|---|---|---|---|---|---|---|---|---|
| Oggi h: 04:00 | Foschia | 19 | 19 | 100 | 1012 | 5 | N/NO 10.8 | |
| Oggi h: 03:00 | Foschia | 19 | 19 | 100 | 1012 | 5 | N/NO 10.8 | |
| Oggi h: 02:00 | Foschia | 20 | 20 | 100 | 1012 | 5 | N/NO 14.4 | |
| Oggi h: 01:00 | Sereno | 20 | 20 | 100 | 1012 | 6 | N/NO 10.8 | |
| Oggi h: 00:00 | Sereno | 21 | 19 | 88 | 1012 | 10 | N 7.2 | |
| Ieri h: 23:00 | Sereno | 22 | 18 | 78 | 1012 | 10 | N 7.2 | |
| Ieri h: 22:00 | Sereno | 23 | 18 | 73 | 1012 | 10 | N/NE 14.4 | |
| Ieri h: 21:00 | Sereno | 22 | 17 | 73 | 1011 | 10 | N 10.8 | |
| Ieri h: 20:00 | Sereno | 24 | 17 | 64 | 1011 | 10 | N/NE 10.8 | |
| Ieri h: 19:00 | Sereno | 25 | 16 | 57 | 1010 | 10 | N 10.8 | |
| Ieri h: 18:00 | Sereno | 28 | 16 | 48 | 1009 | 10 | N/NE 14.4 | |
| Ieri h: 17:00 | Poco Nuvoloso | 30 | 15 | 40 | 1009 | 10 | N/NE 14.4 | |
| Ieri h: 16:00 | Poco Nuvoloso | 31 | 15 | 37 | 1008 | 10 | N/NE 18 | |
| Ieri h: 15:00 | Nuvoloso | 31 | 18 | 45 | 1008 | 10 | N 18 | |
| Ieri h: 14:00 | Nuvoloso | 31 | 19 | 48 | 1008 | 10 | N/NE 14.4 | |
| Ieri h: 13:00 | Nuvoloso | 31 | 18 | 45 | 1008 | 10 | N/NE 21.6 | |
| Ieri h: 12:00 | Nuvoloso | 29 | 18 | 51 | 1009 | 10 | NE 21.6 | |
| Ieri h: 11:00 | Nuvoloso | 28 | 21 | 65 | 1009 | 10 | N/NE 18 | |
| Ieri h: 10:00 | Nuvoloso | 27 | 22 | 74 | 1009 | 10 | NE 18 | |
| Ieri h: 09:00 | Nuvoloso | 25 | 22 | 83 | 1009 | 6 | N/NE 14.4 | |
| Ieri h: 08:00 | Foschia | 23 | 23 | 100 | 1008 | 3 | N/NE 14.4 | |
| Ieri h: 07:00 | Foschia | 22 | 22 | 100 | 1008 | 2 | N 10.8 | |
| Ieri h: 06:00 | Foschia | 21 | 21 | 100 | 1008 | 1 | N 7.2 | |
| Ieri h: 05:00 | Foschia | 21 | 21 | 100 | 1008 | 2 | N/NO 14.4 | |



